Volney, New York
Current Conditions -  °F | °C
As of 6:54 AM on Wednesday 28 Jan 2015 (Local Time) from KFZY Reporting Station
Clear Clear  
Wind Chill:   Ceiling: Unl
Heat Index:   Visibility: 10mi
Dew Point:   Wind: 0mph
Humidity: 80%   Direction: NA
Pressure: 30.16"   Gusts: NA
Location:  43.3608°N, 76.3536°W
Report Text: KFZY 281154Z AUTO 00000KT 10SM CLR M15/M18 A3016 RMK AO2 SLP222 I1000 I6000 T11501178 11100 21161 53029
Loading
Personal Weather Stations






























Interactive Weather Map New forecast layout! Learn more

10-Day Weather Forecast

Advertisements
Track Severe Weather on mobile